Time;durP1;ratioP1;P1;durP2;ratioP2;P2;SDS_P1;SDS_P2;PMS_P1;PMS_P2;Temp;Humidity;BMP_temperature;BMP_pressure;BME280_temperature;BME280_humidity;BME280_pressure;Samples;Min_cycle;Max_cycle;Signal;HPM_P1;HPM_P2
2023/06/03 00:01:33;;;;;;;0.20;0.20;;;6.40;99.90;;;;;;5016747;28;20032;-77
2023/06/03 00:03:59;;;;;;;0.20;0.20;;;6.30;99.90;;;;;;5017107;28;20026;-76
2023/06/03 00:06:25;;;;;;;0.28;0.28;;;6.30;99.90;;;;;;5016789;28;20029;-76
2023/06/03 00:08:50;;;;;;;0.30;0.30;;;6.30;99.90;;;;;;5034447;28;20499;-76
2023/06/03 00:11:16;;;;;;;0.30;0.30;;;6.30;99.90;;;;;;5034746;28;20021;-76
2023/06/03 00:13:41;;;;;;;0.30;0.30;;;6.20;99.90;;;;;;5034510;28;20025;-76
2023/06/03 00:16:07;;;;;;;0.30;0.30;;;6.20;99.90;;;;;;5034255;28;20029;-76
2023/06/03 00:18:33;;;;;;;0.20;0.20;;;6.10;99.90;;;;;;5026343;28;20030;-77
2023/06/03 00:21:01;;;;;;;0.30;0.30;;;6.10;99.90;;;;;;5016545;28;20025;-76
2023/06/03 00:23:27;;;;;;;0.20;0.20;;;6.00;99.90;;;;;;5014229;28;20050;-76
2023/06/03 00:25:53;;;;;;;0.30;0.30;;;6.00;99.90;;;;;;5014575;28;20084;-76
2023/06/03 00:28:18;;;;;;;0.30;0.30;;;6.00;99.90;;;;;;5024661;28;20026;-76
2023/06/03 00:30:44;;;;;;;0.28;0.28;;;5.90;99.90;;;;;;5034319;28;20037;-76
2023/06/03 00:33:10;;;;;;;0.30;0.30;;;5.90;99.90;;;;;;5031986;28;20030;-76
2023/06/03 00:35:36;;;;;;;0.20;0.20;;;5.90;99.90;;;;;;5034246;28;20021;-76
2023/06/03 00:38:02;;;;;;;0.22;0.22;;;5.90;99.90;;;;;;5033774;28;20033;-76
2023/06/03 00:40:27;;;;;;;0.20;0.20;;;5.90;99.90;;;;;;5033795;28;20411;-76
2023/06/03 00:42:53;;;;;;;0.30;0.30;;;5.90;99.90;;;;;;5012853;28;20553;-76
2023/06/03 00:45:19;;;;;;;0.20;0.20;;;6.00;99.90;;;;;;5014473;28;20030;-76
2023/06/03 00:47:45;;;;;;;0.20;0.20;;;5.90;99.90;;;;;;5033612;28;20151;-76
2023/06/03 00:50:13;;;;;;;0.30;0.30;;;5.90;99.90;;;;;;5033799;28;20100;-76
2023/06/03 00:52:40;;;;;;;0.20;0.20;;;5.90;99.90;;;;;;5033744;28;20018;-76
2023/06/03 00:55:06;;;;;;;0.30;0.30;;;5.90;99.90;;;;;;5033757;28;20415;-76
2023/06/03 00:57:32;;;;;;;0.30;0.30;;;5.80;99.90;;;;;;5033691;28;20024;-76
2023/06/03 00:59:57;;;;;;;0.30;0.30;;;5.70;99.90;;;;;;5033516;28;20022;-76
2023/06/03 01:02:23;;;;;;;0.30;0.30;;;5.70;99.90;;;;;;5015675;28;20025;-76
2023/06/03 01:04:51;;;;;;;0.20;0.20;;;5.70;99.90;;;;;;5033382;28;20135;-76
2023/06/03 01:07:46;;;;;;;0.20;0.20;;;5.60;99.90;;;;;;5033372;28;20021;-76
2023/06/03 01:10:21;;;;;;;0.30;0.30;;;5.60;99.90;;;;;;5015790;28;20032;-76
2023/06/03 01:13:02;;;;;;;0.20;0.20;;;5.50;99.90;;;;;;5013921;28;20044;-76
2023/06/03 01:15:30;;;;;;;0.25;0.25;;;5.50;99.90;;;;;;5033157;28;20028;-76
2023/06/03 01:18:01;;;;;;;0.20;0.20;;;5.50;99.90;;;;;;5026412;28;20072;-76
2023/06/03 01:20:28;;;;;;;0.22;0.22;;;5.50;99.90;;;;;;5028426;28;20028;-76
2023/06/03 01:22:58;;;;;;;0.20;0.20;;;5.50;99.90;;;;;;5015167;28;20068;-76
2023/06/03 01:25:26;;;;;;;0.20;0.20;;;5.50;99.90;;;;;;5033272;28;20021;-76
2023/06/03 01:27:52;;;;;;;0.38;0.38;;;5.50;99.90;;;;;;5010129;28;20022;-76
2023/06/03 01:30:20;;;;;;;0.20;0.20;;;5.40;99.90;;;;;;5013285;28;20094;-76
2023/06/03 01:32:49;;;;;;;0.20;0.20;;;5.40;99.90;;;;;;5013787;28;20559;-76
2023/06/03 01:35:16;;;;;;;0.30;0.30;;;5.40;99.90;;;;;;5013636;28;20037;-76
2023/06/03 01:37:41;;;;;;;0.30;0.30;;;5.30;99.90;;;;;;4995821;28;20028;-76
2023/06/03 01:40:09;;;;;;;0.20;0.20;;;5.30;99.90;;;;;;4994902;28;20109;-76
2023/06/03 01:42:36;;;;;;;0.30;0.30;;;5.30;99.90;;;;;;5024675;28;20045;-76
2023/06/03 01:45:03;;;;;;;0.30;0.30;;;5.30;99.90;;;;;;5032973;28;20029;-76
2023/06/03 01:47:30;;;;;;;0.20;0.20;;;5.20;99.90;;;;;;5032783;28;20517;-76
2023/06/03 01:49:56;;;;;;;0.20;0.20;;;5.10;99.90;;;;;;5032881;28;20097;-76
2023/06/03 01:52:21;;;;;;;0.20;0.20;;;5.20;99.90;;;;;;5015039;28;20076;-76
2023/06/03 01:54:47;;;;;;;0.30;0.30;;;5.20;99.90;;;;;;5032926;28;20083;-76
2023/06/03 01:57:13;;;;;;;0.30;0.30;;;5.20;99.90;;;;;;5015299;28;20035;-76
2023/06/03 01:59:38;;;;;;;0.28;0.28;;;5.20;99.90;;;;;;5014812;28;20030;-76
2023/06/03 02:02:05;;;;;;;0.30;0.30;;;5.20;99.90;;;;;;5032788;28;20040;-76
2023/06/03 02:04:31;;;;;;;0.20;0.20;;;5.20;99.90;;;;;;5033065;28;20022;-76
2023/06/03 02:07:00;;;;;;;0.30;0.30;;;5.10;99.90;;;;;;5032608;28;20024;-76
2023/06/03 02:09:27;;;;;;;0.30;0.30;;;5.10;99.90;;;;;;5032795;28;20049;-76
2023/06/03 02:11:58;;;;;;;0.22;0.22;;;5.10;99.90;;;;;;5032557;28;20022;-76
2023/06/03 02:14:26;;;;;;;0.20;0.20;;;5.00;99.90;;;;;;5032745;28;20033;-76
2023/06/03 02:16:52;;;;;;;0.30;0.30;;;5.00;99.90;;;;;;5014934;28;20108;-76
2023/06/03 02:19:24;;;;;;;0.30;0.30;;;5.00;99.90;;;;;;5032556;28;20104;-76
2023/06/03 02:21:51;;;;;;;0.28;0.28;;;4.90;99.90;;;;;;5014424;28;20025;-76
2023/06/03 02:24:17;;;;;;;0.28;0.28;;;4.80;99.90;;;;;;5032608;28;20025;-76
2023/06/03 02:26:52;;;;;;;0.20;0.20;;;4.80;99.90;;;;;;5032783;28;20400;-76
2023/06/03 02:29:25;;;;;;;0.28;0.28;;;4.80;99.90;;;;;;5032490;28;20018;-76
2023/06/03 02:31:51;;;;;;;0.20;0.20;;;4.80;99.90;;;;;;5032775;28;20040;-76
2023/06/03 02:34:17;;;;;;;0.20;0.20;;;4.80;99.90;;;;;;5032641;28;20495;-76
2023/06/03 02:36:43;;;;;;;0.20;0.20;;;4.70;99.90;;;;;;5032521;28;20040;-76
2023/06/03 02:39:09;;;;;;;0.20;0.20;;;4.70;99.90;;;;;;5032325;28;20025;-76
2023/06/03 02:41:36;;;;;;;0.17;0.17;;;4.70;99.90;;;;;;5032379;28;20483;-76
2023/06/03 02:44:02;;;;;;;0.20;0.20;;;4.70;99.90;;;;;;5032332;28;20096;-76
2023/06/03 02:46:28;;;;;;;0.28;0.28;;;4.60;99.90;;;;;;5032258;28;20021;-76
2023/06/03 02:48:54;;;;;;;0.20;0.20;;;4.60;99.90;;;;;;5032261;28;20026;-76
2023/06/03 02:51:19;;;;;;;0.22;0.22;;;4.60;99.90;;;;;;5032347;28;20030;-76
2023/06/03 02:53:45;;;;;;;0.30;0.30;;;4.60;99.90;;;;;;5036124;28;20032;-76
2023/06/03 02:56:10;;;;;;;0.20;0.20;;;4.60;99.90;;;;;;5036052;28;20029;-76
2023/06/03 02:58:36;;;;;;;0.30;0.30;;;4.60;99.90;;;;;;5035884;28;20026;-76
2023/06/03 03:01:02;;;;;;;0.20;0.20;;;4.60;99.90;;;;;;5035930;28;20112;-76
2023/06/03 03:03:28;;;;;;;0.30;0.30;;;4.60;99.90;;;;;;5018156;28;20025;-76
2023/06/03 03:05:54;;;;;;;0.20;0.20;;;4.60;99.90;;;;;;5036390;28;20014;-76
2023/06/03 03:08:22;;;;;;;0.30;0.30;;;4.60;99.90;;;;;;5035780;28;20033;-75
2023/06/03 03:10:48;;;;;;;0.30;0.30;;;4.60;99.90;;;;;;5035867;28;20017;-76
2023/06/03 03:13:14;;;;;;;0.30;0.30;;;4.70;99.90;;;;;;5035619;28;20412;-76
2023/06/03 03:15:40;;;;;;;0.20;0.20;;;4.60;99.90;;;;;;5035767;28;20048;-76
2023/06/03 03:18:06;;;;;;;0.20;0.20;;;4.70;99.90;;;;;;5017843;28;20391;-76
2023/06/03 03:20:31;;;;;;;0.20;0.20;;;4.60;99.90;;;;;;5035389;28;20104;-76
2023/06/03 03:22:58;;;;;;;0.30;0.30;;;4.70;99.90;;;;;;5035073;28;20112;-76
2023/06/03 03:25:24;;;;;;;0.20;0.20;;;4.70;99.90;;;;;;5035560;28;20029;-76
2023/06/03 03:27:49;;;;;;;0.20;0.20;;;4.80;99.90;;;;;;5017619;28;20030;-76
2023/06/03 03:30:15;;;;;;;0.20;0.20;;;4.80;99.90;;;;;;5035343;28;20033;-77
2023/06/03 03:32:41;;;;;;;0.20;0.20;;;4.80;99.90;;;;;;5035426;28;20384;-77
2023/06/03 03:35:20;;;;;;;0.20;0.20;;;4.80;99.90;;;;;;5017667;28;20107;-76
2023/06/03 03:37:46;;;;;;;0.30;0.30;;;4.90;99.90;;;;;;5035151;28;20040;-77
2023/06/03 03:40:21;;;;;;;0.20;0.20;;;4.90;99.90;;;;;;5034466;28;20037;-77
2023/06/03 03:42:52;;;;;;;0.25;0.25;;;4.90;99.90;;;;;;5034055;28;20167;-76
2023/06/03 03:45:27;;;;;;;0.20;0.20;;;4.90;99.90;;;;;;5033806;28;20021;-77
2023/06/03 03:48:02;;;;;;;0.30;0.30;;;4.90;99.90;;;;;;5016350;28;20021;-76
2023/06/03 03:50:49;;;;;;;0.20;0.20;;;5.00;99.90;;;;;;5034137;28;20433;-76
2023/06/03 03:53:18;;;;;;;0.22;0.22;;;5.00;99.90;;;;;;5016238;28;20033;-77
2023/06/03 03:55:49;;;;;;;0.22;0.22;;;5.00;99.90;;;;;;5034004;28;20026;-77
2023/06/03 03:58:25;;;;;;;0.20;0.20;;;5.10;99.90;;;;;;5033542;28;20022;-77
2023/06/03 04:00:51;;;;;;;0.30;0.30;;;5.10;99.90;;;;;;5016156;28;20510;-76
2023/06/03 04:03:19;;;;;;;0.20;0.20;;;5.20;99.90;;;;;;5033146;28;20502;-76
2023/06/03 04:05:46;;;;;;;0.40;0.40;;;5.30;99.90;;;;;;5016591;28;20078;-76
2023/06/03 04:08:35;;;;;;;0.20;0.20;;;5.40;99.90;;;;;;5016178;28;20025;-76
2023/06/03 04:11:01;;;;;;;0.30;0.30;;;5.50;99.90;;;;;;5034174;28;20022;-77
2023/06/03 04:13:27;;;;;;;0.30;0.30;;;5.50;99.90;;;;;;5033765;28;20080;-76
2023/06/03 04:15:52;;;;;;;0.30;0.30;;;5.60;99.90;;;;;;5033930;28;20556;-76
2023/06/03 04:18:20;;;;;;;0.30;0.30;;;5.70;99.90;;;;;;5033718;28;20029;-76
2023/06/03 04:20:49;;;;;;;0.28;0.28;;;5.80;99.90;;;;;;5033618;28;20021;-77
2023/06/03 04:23:17;;;;;;;0.20;0.20;;;5.90;99.90;;;;;;5033639;28;20128;-76
2023/06/03 04:25:43;;;;;;;0.30;0.30;;;6.00;99.90;;;;;;5033582;28;20071;-76
2023/06/03 04:28:12;;;;;;;0.20;0.20;;;6.20;99.90;;;;;;5015909;28;20056;-77
2023/06/03 04:30:38;;;;;;;0.20;0.20;;;6.30;99.90;;;;;;5033482;28;20076;-76
2023/06/03 04:33:04;;;;;;;0.20;0.20;;;6.40;99.90;;;;;;5033449;28;20033;-76
2023/06/03 04:35:29;;;;;;;0.20;0.20;;;6.50;99.90;;;;;;5033475;28;20434;-77
2023/06/03 04:37:57;;;;;;;0.20;0.20;;;6.60;99.90;;;;;;5033377;28;20022;-76
2023/06/03 04:40:23;;;;;;;0.20;0.20;;;6.80;99.90;;;;;;4996981;28;1063846;-76
2023/06/03 04:42:51;;;;;;;0.20;0.20;;;6.90;99.90;;;;;;5016401;28;20052;-76
2023/06/03 04:45:16;;;;;;;0.20;0.20;;;7.00;99.90;;;;;;5034245;28;20044;-76
2023/06/03 04:47:42;;;;;;;0.20;0.20;;;7.10;99.90;;;;;;5034055;28;20065;-77
2023/06/03 04:50:11;;;;;;;0.28;0.28;;;7.30;99.90;;;;;;5034125;28;20045;-77
2023/06/03 04:52:37;;;;;;;0.20;0.20;;;7.40;99.90;;;;;;5034019;28;20037;-77
2023/06/03 04:55:03;;;;;;;0.10;0.10;;;7.60;99.90;;;;;;5033970;28;20025;-77
2023/06/03 04:57:28;;;;;;;0.28;0.28;;;7.70;99.90;;;;;;5016235;28;20095;-77
2023/06/03 04:59:54;;;;;;;0.30;0.30;;;7.90;99.90;;;;;;5033811;28;20104;-77
2023/06/03 05:02:20;;;;;;;0.20;0.20;;;8.00;99.90;;;;;;5016153;28;20399;-77
2023/06/03 05:04:46;;;;;;;0.20;0.20;;;8.20;99.90;;;;;;5034100;28;20032;-77
2023/06/03 05:07:13;;;;;;;0.30;0.30;;;8.40;99.90;;;;;;5033768;28;20028;-77
2023/06/03 05:09:39;;;;;;;0.20;0.20;;;8.60;99.90;;;;;;5033646;28;20502;-77
2023/06/03 05:12:06;;;;;;;0.22;0.22;;;8.80;99.90;;;;;;5016206;28;20033;-77
2023/06/03 05:14:32;;;;;;;0.20;0.20;;;9.00;99.90;;;;;;5015892;28;20036;-77
2023/06/03 05:16:57;;;;;;;0.20;0.20;;;9.20;99.90;;;;;;5033593;28;20479;-77
2023/06/03 05:19:23;;;;;;;0.20;0.20;;;9.40;99.90;;;;;;5033436;28;20035;-77
2023/06/03 05:21:49;;;;;;;0.15;0.15;;;9.60;99.90;;;;;;5033552;28;20028;-77
2023/06/03 05:24:14;;;;;;;0.20;0.20;;;9.90;99.90;;;;;;5033422;28;20040;-77
2023/06/03 05:26:40;;;;;;;0.20;0.20;;;10.10;99.90;;;;;;5033449;28;20032;-77
2023/06/03 05:29:06;;;;;;;0.30;0.30;;;10.30;99.90;;;;;;5008749;28;20056;-77
2023/06/03 05:31:31;;;;;;;0.20;0.20;;;10.50;99.90;;;;;;5013508;28;20022;-77
2023/06/03 05:33:57;;;;;;;0.20;0.20;;;10.70;99.90;;;;;;5013399;28;20061;-77
2023/06/03 05:36:22;;;;;;;0.28;0.28;;;10.90;99.90;;;;;;5013612;28;20100;-77
2023/06/03 05:38:48;;;;;;;0.25;0.25;;;11.10;99.90;;;;;;5013425;28;20033;-77
2023/06/03 05:41:13;;;;;;;0.20;0.20;;;11.40;99.90;;;;;;5013439;28;20037;-77
2023/06/03 05:43:39;;;;;;;0.20;0.20;;;11.60;99.90;;;;;;5026736;28;20376;-77
2023/06/03 05:46:05;;;;;;;0.20;0.20;;;12.00;99.90;;;;;;5013483;28;20022;-77
2023/06/03 05:48:30;;;;;;;0.30;0.30;;;12.10;99.90;;;;;;5028346;28;20080;-77
2023/06/03 05:50:56;;;;;;;0.20;0.20;;;12.40;99.90;;;;;;5029972;28;20037;-77
2023/06/03 05:53:24;;;;;;;0.13;0.13;;;12.60;99.90;;;;;;5032910;28;20053;-77
2023/06/03 05:55:50;;;;;;;0.20;0.20;;;12.80;99.90;;;;;;5032895;28;20030;-77
2023/06/03 05:58:22;;;;;;;0.20;0.20;;;13.00;99.90;;;;;;5033237;28;20025;-77
2023/06/03 06:00:48;;;;;;;0.20;0.20;;;13.20;99.90;;;;;;5032622;28;20049;-77
2023/06/03 06:03:14;;;;;;;0.17;0.17;;;13.40;99.90;;;;;;5032804;28;20068;-77
2023/06/03 06:05:40;;;;;;;0.15;0.15;;;13.60;99.90;;;;;;5033004;28;20109;-77
2023/06/03 06:08:06;;;;;;;0.28;0.28;;;13.80;99.90;;;;;;5033365;28;20064;-77
2023/06/03 06:10:31;;;;;;;0.20;0.20;;;14.00;99.90;;;;;;5033066;28;20108;-77
2023/06/03 06:12:57;;;;;;;0.20;0.20;;;14.20;99.90;;;;;;5032975;28;20022;-77
2023/06/03 06:15:22;;;;;;;0.20;0.20;;;14.40;99.90;;;;;;5032835;28;20018;-77
2023/06/03 06:17:48;;;;;;;0.20;0.20;;;14.60;99.90;;;;;;5032963;28;20017;-77
2023/06/03 06:20:14;;;;;;;0.20;0.20;;;14.90;99.90;;;;;;5032823;28;20025;-77
2023/06/03 06:22:39;;;;;;;0.15;0.15;;;15.00;99.90;;;;;;5032784;28;20022;-77
2023/06/03 06:25:09;;;;;;;0.17;0.17;;;15.10;99.90;;;;;;5032628;28;20037;-77
2023/06/03 06:27:34;;;;;;;0.20;0.20;;;15.20;99.90;;;;;;5017134;28;20036;-77
2023/06/03 06:30:01;;;;;;;0.20;0.20;;;15.40;99.90;;;;;;5036570;28;20025;-77
2023/06/03 06:32:27;;;;;;;0.20;0.20;;;15.50;99.90;;;;;;5010097;28;20049;-77
2023/06/03 06:34:53;;;;;;;0.20;0.20;;;15.60;99.90;;;;;;5008810;28;20103;-77
2023/06/03 06:37:19;;;;;;;0.10;0.10;;;15.70;99.90;;;;;;5036730;28;20021;-77
2023/06/03 06:39:46;;;;;;;0.20;0.20;;;15.80;99.90;;;;;;5023670;28;20041;-77
2023/06/03 06:42:20;;;;;;;0.20;0.20;;;16.00;99.90;;;;;;5016840;28;20076;-77
2023/06/03 06:44:48;;;;;;;0.20;0.20;;;16.10;99.90;;;;;;4999093;28;20030;-75
2023/06/03 06:47:24;;;;;;;0.10;0.10;;;16.20;99.90;;;;;;5016602;28;20036;-77
2023/06/03 06:49:51;;;;;;;0.20;0.20;;;16.50;99.90;;;;;;5022853;28;20036;-77
2023/06/03 06:52:16;;;;;;;0.20;0.20;;;16.70;99.90;;;;;;5022847;28;20023;-77
2023/06/03 06:54:42;;;;;;;0.15;0.15;;;16.80;99.90;;;;;;5026821;28;20076;-78
2023/06/03 06:57:08;;;;;;;0.20;0.20;;;16.90;99.90;;;;;;5035579;28;20022;-78
2023/06/03 06:59:34;;;;;;;0.20;0.20;;;17.00;99.90;;;;;;5002784;28;20014;-77
2023/06/03 07:02:00;;;;;;;0.20;0.20;;;17.10;99.90;;;;;;5033331;28;20018;-77
2023/06/03 07:04:25;;;;;;;0.10;0.10;;;17.20;99.90;;;;;;5038396;28;20018;-77
2023/06/03 07:06:51;;;;;;;0.10;0.10;;;17.30;99.90;;;;;;5037615;28;20026;-77
2023/06/03 07:09:16;;;;;;;0.10;0.10;;;17.40;99.90;;;;;;5039337;28;20049;-80
2023/06/03 07:11:46;;;;;;;0.10;0.10;;;17.40;99.90;;;;;;5039055;28;20030;-79
2023/06/03 07:14:13;;;;;;;0.10;0.10;;;17.50;99.90;;;;;;5040143;28;20029;-78
2023/06/03 07:16:40;;;;;;;0.15;0.15;;;17.60;99.90;;;;;;5039707;28;20029;-79
2023/06/03 07:19:06;;;;;;;0.10;0.10;;;17.50;99.90;;;;;;5021174;28;20073;-80
2023/06/03 07:21:33;;;;;;;0.17;0.17;;;17.60;99.90;;;;;;5040332;28;20018;-78
2023/06/03 07:23:59;;;;;;;0.20;0.20;;;17.60;99.90;;;;;;5038536;28;20022;-80
2023/06/03 07:26:27;;;;;;;0.10;0.10;;;17.70;99.90;;;;;;5038495;28;20025;-78
2023/06/03 07:28:56;;;;;;;0.10;0.10;;;17.80;99.90;;;;;;5038603;28;20116;-79
2023/06/03 07:31:22;;;;;;;0.20;0.20;;;18.00;99.90;;;;;;5040027;28;20028;-79
2023/06/03 07:33:53;;;;;;;0.20;0.20;;;18.20;99.90;;;;;;5021314;28;20025;-80
2023/06/03 07:36:24;;;;;;;0.15;0.15;;;18.40;99.90;;;;;;5038440;28;20025;-78
2023/06/03 07:39:06;;;;;;;0.10;0.10;;;18.70;99.90;;;;;;5020367;28;20497;-79
2023/06/03 07:41:36;;;;;;;0.17;0.17;;;18.60;99.90;;;;;;5025134;28;20044;-78
2023/06/03 07:44:08;;;;;;;0.10;0.10;;;18.60;99.90;;;;;;5025808;28;20479;-79
2023/06/03 07:46:40;;;;;;;0.10;0.10;;;18.40;99.90;;;;;;5024861;28;20372;-78
2023/06/03 07:49:14;;;;;;;0.17;0.17;;;18.30;99.90;;;;;;5023773;28;20116;-78
2023/06/03 07:51:51;;;;;;;0.10;0.10;;;18.40;99.90;;;;;;5024519;28;20029;-78
2023/06/03 07:54:18;;;;;;;0.10;0.10;;;18.40;99.90;;;;;;5042799;28;20060;-80
2023/06/03 07:56:44;;;;;;;0.10;0.10;;;18.40;99.90;;;;;;5043281;28;20014;-78
2023/06/03 07:59:12;;;;;;;0.10;0.10;;;18.40;99.90;;;;;;5044357;28;20053;-78
2023/06/03 08:01:38;;;;;;;0.10;0.10;;;18.50;99.90;;;;;;5027095;28;20079;-78
2023/06/03 08:04:11;;;;;;;0.10;0.10;;;18.90;99.90;;;;;;5042803;28;20030;-79
2023/06/03 08:06:36;;;;;;;0.13;0.13;;;18.90;99.90;;;;;;5023770;28;20029;-77
2023/06/03 08:09:02;;;;;;;0.10;0.10;;;19.00;99.90;;;;;;5038562;28;20075;-78
2023/06/03 08:11:30;;;;;;;0.17;0.17;;;19.00;99.90;;;;;;5020422;28;20434;-79
2023/06/03 08:13:56;;;;;;;0.10;0.10;;;19.00;99.90;;;;;;5037733;28;20025;-77
2023/06/03 08:16:22;;;;;;;0.10;0.10;;;19.00;99.90;;;;;;5016743;28;20108;-77
2023/06/03 08:18:54;;;;;;;0.10;0.10;;;19.00;99.90;;;;;;5034933;28;20101;-77
2023/06/03 08:21:26;;;;;;;0.20;0.20;;;19.20;99.90;;;;;;5035569;28;20018;-78
2023/06/03 08:23:52;;;;;;;0.20;0.20;;;19.30;99.90;;;;;;5035891;28;20028;-77
2023/06/03 08:26:17;;;;;;;0.10;0.10;;;19.20;99.90;;;;;;5017718;28;20029;-77
2023/06/03 08:28:43;;;;;;;0.10;0.10;;;19.50;99.90;;;;;;5021016;28;20030;-78
2023/06/03 08:31:09;;;;;;;0.13;0.13;;;19.60;99.90;;;;;;5043345;28;20081;-79
2023/06/03 08:33:34;;;;;;;0.20;0.20;;;19.60;99.90;;;;;;5037734;28;20480;-78
2023/06/03 08:36:01;;;;;;;0.10;0.10;;;19.50;99.90;;;;;;5023081;28;20482;-77
2023/06/03 08:38:26;;;;;;;0.10;0.10;;;19.60;99.90;;;;;;5041186;28;20024;-77
2023/06/03 08:40:52;;;;;;;0.10;0.10;;;19.60;99.90;;;;;;5031044;28;20415;-78
2023/06/03 08:43:21;;;;;;;0.20;0.20;;;20.00;99.90;;;;;;5040672;28;20100;-79
2023/06/03 08:46:00;;;;;;;0.10;0.10;;;19.90;99.90;;;;;;5037236;28;20030;-79
2023/06/03 08:48:37;;;;;;;0.10;0.10;;;19.80;99.90;;;;;;5022504;28;20029;-78
2023/06/03 08:51:05;;;;;;;0.10;0.10;;;19.90;99.90;;;;;;5046662;28;20017;-79
2023/06/03 08:53:47;;;;;;;0.10;0.10;;;19.80;99.90;;;;;;5046611;28;20025;-79
2023/06/03 08:56:17;;;;;;;0.10;0.10;;;19.80;99.90;;;;;;5028307;28;20397;-78
2023/06/03 08:58:48;;;;;;;0.10;0.10;;;20.10;99.90;;;;;;5029185;28;20025;-77
2023/06/03 09:01:16;;;;;;;0.10;0.10;;;20.10;99.90;;;;;;5035014;28;20034;-78
2023/06/03 09:03:43;;;;;;;0.10;0.10;;;20.20;99.90;;;;;;5034755;28;20479;-77
2023/06/03 09:06:10;;;;;;;0.10;0.10;;;20.20;99.90;;;;;;5033914;28;20376;-77
2023/06/03 09:08:38;;;;;;;0.10;0.10;;;20.30;99.90;;;;;;5033674;28;20030;-77
2023/06/03 09:11:07;;;;;;;0.10;0.10;;;20.00;99.90;;;;;;5033587;28;20416;-77
2023/06/03 09:13:34;;;;;;;0.20;0.20;;;20.10;99.90;;;;;;5033687;28;20057;-77
2023/06/03 09:15:59;;;;;;;0.00;0.00;;;20.20;99.90;;;;;;5016032;28;20505;-77
2023/06/03 09:18:25;;;;;;;0.10;0.10;;;19.90;99.90;;;;;;5033635;28;20029;-77
2023/06/03 09:20:51;;;;;;;0.10;0.10;;;20.00;99.90;;;;;;5033467;28;20022;-77
2023/06/03 09:23:16;;;;;;;0.10;0.10;;;20.20;99.90;;;;;;5033238;28;20422;-77
2023/06/03 09:25:43;;;;;;;0.10;0.10;;;20.40;99.90;;;;;;5015621;28;20112;-77
2023/06/03 09:28:10;;;;;;;0.15;0.15;;;20.70;99.90;;;;;;5033239;28;20430;-77
2023/06/03 09:30:35;;;;;;;0.10;0.10;;;20.60;99.90;;;;;;5033035;28;20025;-77
2023/06/03 09:33:02;;;;;;;0.10;0.10;;;20.80;99.90;;;;;;5033271;28;20120;-77
2023/06/03 09:35:27;;;;;;;0.10;0.10;;;20.60;99.90;;;;;;5033136;28;20040;-77
2023/06/03 09:37:59;;;;;;;0.10;0.10;;;20.60;99.90;;;;;;5015026;28;20491;-77
2023/06/03 09:40:29;;;;;;;0.10;0.10;;;20.90;99.90;;;;;;5033174;28;20108;-77
2023/06/03 09:42:55;;;;;;;0.00;0.00;;;21.30;99.90;;;;;;5032805;28;20108;-77
2023/06/03 09:45:30;;;;;;;0.10;0.10;;;21.30;99.90;;;;;;5033236;28;20111;-77
2023/06/03 09:47:57;;;;;;;0.10;0.10;;;21.20;99.90;;;;;;5032840;28;20482;-77
2023/06/03 09:50:24;;;;;;;0.10;0.10;;;21.00;99.90;;;;;;5033142;28;20155;-77
2023/06/03 09:52:50;;;;;;;0.10;0.10;;;20.90;99.90;;;;;;5033059;28;20390;-77
2023/06/03 09:55:17;;;;;;;0.10;0.10;;;21.00;99.90;;;;;;5015061;28;20029;-77
2023/06/03 09:58:06;;;;;;;0.10;0.10;;;20.90;99.90;;;;;;5035910;28;20025;-77
2023/06/03 10:00:45;;;;;;;0.10;0.10;;;21.00;99.90;;;;;;5033355;28;20021;-77
2023/06/03 10:03:10;;;;;;;0.10;0.10;;;20.90;99.90;;;;;;5033029;28;20553;-77
2023/06/03 10:05:36;;;;;;;0.10;0.10;;;20.70;99.90;;;;;;5034091;28;20034;-77
2023/06/03 10:08:03;;;;;;;0.10;0.10;;;20.70;99.90;;;;;;5015452;28;20480;-77
2023/06/03 10:10:29;;;;;;;0.10;0.10;;;21.10;99.90;;;;;;5015932;28;20060;-78
2023/06/03 10:12:55;;;;;;;0.10;0.10;;;21.20;99.90;;;;;;5034456;28;20026;-78
2023/06/03 10:15:35;;;;;;;0.10;0.10;;;21.20;99.90;;;;;;5033443;28;20581;-78
2023/06/03 10:18:01;;;;;;;0.10;0.10;;;21.10;99.90;;;;;;5033727;28;20053;-78
2023/06/03 10:20:35;;;;;;;0.10;0.10;;;21.30;99.90;;;;;;5015751;28;20052;-78
2023/06/03 10:23:02;;;;;;;0.10;0.10;;;21.60;99.90;;;;;;5016122;28;20390;-77
2023/06/03 10:25:32;;;;;;;0.10;0.10;;;21.80;99.90;;;;;;5033737;28;20419;-78
2023/06/03 10:27:59;;;;;;;0.10;0.10;;;21.90;99.90;;;;;;5040674;28;20041;-78
2023/06/03 10:30:27;;;;;;;0.10;0.10;;;22.30;99.90;;;;;;5039469;28;20104;-78
2023/06/03 10:32:53;;;;;;;0.10;0.10;;;22.60;99.90;;;;;;5039179;28;20033;-77
2023/06/03 10:35:21;;;;;;;0.10;0.10;;;22.80;99.90;;;;;;5039655;28;20061;-77
2023/06/03 10:37:49;;;;;;;0.00;0.00;;;22.60;99.60;;;;;;5040572;28;20108;-78
2023/06/03 10:40:15;;;;;;;0.10;0.10;;;22.60;99.90;;;;;;5037180;28;20072;-77
2023/06/03 10:42:42;;;;;;;0.10;0.10;;;22.70;99.90;;;;;;5035745;28;20426;-78
2023/06/03 10:45:08;;;;;;;0.10;0.10;;;22.80;99.90;;;;;;5017207;28;20060;-77
2023/06/03 10:47:37;;;;;;;0.10;0.10;;;22.50;99.90;;;;;;5039370;28;20566;-77
2023/06/03 10:50:19;;;;;;;0.20;0.20;;;22.40;99.90;;;;;;5023736;28;20057;-78
2023/06/03 10:53:27;;;;;;;0.10;0.10;;;22.40;99.90;;;;;;5039893;28;20032;-78
2023/06/03 10:56:26;;;;;;;0.10;0.10;;;22.80;99.90;;;;;;5021403;28;20486;-77
2023/06/03 10:59:02;;;;;;;0.10;0.10;;;22.50;98.50;;;;;;5035630;28;20033;-77
2023/06/03 11:01:59;;;;;;;0.10;0.10;;;22.60;99.10;;;;;;5016530;28;20021;-77
2023/06/03 11:04:29;;;;;;;0.10;0.10;;;22.60;99.90;;;;;;5033010;28;20035;-78
2023/06/03 11:06:55;;;;;;;0.00;0.00;;;23.10;99.90;;;;;;5036360;28;20040;-78
2023/06/03 11:09:37;;;;;;;0.10;0.10;;;23.00;99.40;;;;;;5034404;28;20025;-78
2023/06/03 11:12:09;;;;;;;0.08;0.08;;;23.00;99.90;;;;;;5034814;28;20032;-78
2023/06/03 11:14:40;;;;;;;0.10;0.10;;;23.20;99.90;;;;;;5019937;28;20083;-78
2023/06/03 11:17:06;;;;;;;0.00;0.00;;;23.40;99.90;;;;;;5022931;28;20018;-78
2023/06/03 11:19:34;;;;;;;0.10;0.10;;;23.10;98.80;;;;;;5020660;28;20053;-79
2023/06/03 11:22:07;;;;;;;0.10;0.10;;;22.90;99.90;;;;;;5023392;28;20028;-78
2023/06/03 11:24:39;;;;;;;0.10;0.10;;;22.80;99.90;;;;;;5020949;28;20503;-77
2023/06/03 11:27:13;;;;;;;0.10;0.10;;;22.80;99.30;;;;;;5038387;28;20061;-78
2023/06/03 11:30:06;;;;;;;0.10;0.10;;;23.30;99.90;;;;;;5038293;28;20048;-77
2023/06/03 11:32:34;;;;;;;0.10;0.10;;;23.40;99.80;;;;;;5030106;28;20049;-78
2023/06/03 11:34:59;;;;;;;0.10;0.10;;;23.70;99.90;;;;;;5020194;28;20029;-78
2023/06/03 11:37:43;;;;;;;0.10;0.10;;;24.20;99.90;;;;;;5040466;28;20096;-79
2023/06/03 11:40:17;;;;;;;0.10;0.10;;;24.00;99.90;;;;;;5041112;28;20049;-78
2023/06/03 11:42:48;;;;;;;0.10;0.10;;;23.80;99.90;;;;;;5021876;28;20030;-78
2023/06/03 11:45:28;;;;;;;0.10;0.10;;;24.10;99.90;;;;;;5040616;28;20032;-77
2023/06/03 11:48:04;;;;;;;0.00;0.00;;;23.80;99.90;;;;;;5022948;28;20028;-78
2023/06/03 11:50:47;;;;;;;0.10;0.10;;;23.70;99.40;;;;;;5040885;28;20442;-78
2023/06/03 11:53:35;;;;;;;0.10;0.10;;;23.10;98.90;;;;;;5039057;28;20545;-78
2023/06/03 11:56:09;;;;;;;0.10;0.10;;;23.20;98.50;;;;;;5038257;28;20499;-78
2023/06/03 11:58:36;;;;;;;0.10;0.10;;;23.40;99.80;;;;;;5042055;28;20021;-78
2023/06/03 12:01:17;;;;;;;0.10;0.10;;;23.70;98.50;;;;;;5046686;28;20021;-79
2023/06/03 12:03:56;;;;;;;0.10;0.10;;;23.80;99.30;;;;;;5040854;28;20024;-79
2023/06/03 12:06:22;;;;;;;0.10;0.10;;;24.10;97.80;;;;;;5040675;28;20025;-79
2023/06/03 12:08:48;;;;;;;0.00;0.00;;;24.50;99.80;;;;;;5024913;28;20025;-78
2023/06/03 12:11:32;;;;;;;0.10;0.10;;;24.30;96.10;;;;;;5022408;28;20036;-78
2023/06/03 12:13:58;;;;;;;0.10;0.10;;;24.60;96.30;;;;;;5041265;28;20025;-78
2023/06/03 12:16:35;;;;;;;0.10;0.10;;;24.90;95.50;;;;;;5041512;28;20029;-78
2023/06/03 12:19:05;;;;;;;0.00;0.00;;;24.70;94.00;;;;;;5043947;28;20053;-79
2023/06/03 12:21:33;;;;;;;0.10;0.10;;;24.20;94.90;;;;;;5043014;28;20434;-79
2023/06/03 12:23:59;;;;;;;0.03;0.03;;;23.60;94.20;;;;;;5023533;28;20032;-77
2023/06/03 12:26:27;;;;;;;0.00;0.00;;;24.10;95.40;;;;;;5040205;28;20458;-78
2023/06/03 12:29:08;;;;;;;0.10;0.10;;;23.90;95.00;;;;;;5041822;28;20036;-79
2023/06/03 12:31:34;;;;;;;0.10;0.10;;;23.50;95.70;;;;;;5041473;28;20029;-79
2023/06/03 12:34:00;;;;;;;0.10;0.10;;;23.10;95.90;;;;;;5039270;28;20108;-78
2023/06/03 12:36:45;;;;;;;0.10;0.10;;;23.10;96.40;;;;;;5040968;28;20502;-79
2023/06/03 12:39:11;;;;;;;0.10;0.10;;;23.00;97.50;;;;;;5039356;28;20018;-78
2023/06/03 12:41:37;;;;;;;0.10;0.10;;;23.60;98.60;;;;;;5043011;28;20448;-78
2023/06/03 12:44:03;;;;;;;0.10;0.10;;;23.90;97.90;;;;;;5040782;28;20109;-79
2023/06/03 12:46:30;;;;;;;0.10;0.10;;;23.60;95.60;;;;;;5042366;28;20026;-77
2023/06/03 12:48:58;;;;;;;0.00;0.00;;;23.90;95.90;;;;;;5042787;28;20422;-78
2023/06/03 12:51:29;;;;;;;0.10;0.10;;;23.90;97.60;;;;;;5042518;28;20067;-78
2023/06/03 12:53:55;;;;;;;0.00;0.00;;;23.90;97.00;;;;;;5042143;28;20391;-78
2023/06/03 12:56:23;;;;;;;0.10;0.10;;;24.10;97.20;;;;;;5041745;28;20025;-79
2023/06/03 12:58:50;;;;;;;0.00;0.00;;;23.60;96.30;;;;;;5026698;28;20105;-78